sensor_id;sensor_type;location;lat;lon;timestamp;pressure;altitude;pressure_sealevel;temperature;humidity
67430;BME280;54298;52.076;5.264;2023-04-30T00:00:26;102319.0;;;7.94;80.25
67430;BME280;54298;52.076;5.264;2023-04-30T00:03:38;102317.0;;;7.94;80.11
67430;BME280;54298;52.076;5.264;2023-04-30T00:05:14;102313.0;;;7.89;80.3
67430;BME280;54298;52.076;5.264;2023-04-30T00:06:50;102310.0;;;7.88;80.3
67430;BME280;54298;52.076;5.264;2023-04-30T00:10:03;102311.0;;;7.76;80.36
67430;BME280;54298;52.076;5.264;2023-04-30T00:11:40;102310.0;;;7.67;80.44
67430;BME280;54298;52.076;5.264;2023-04-30T00:13:16;102308.0;;;7.97;79.34
67430;BME280;54298;52.076;5.264;2023-04-30T00:16:28;102305.0;;;7.84;79.47
67430;BME280;54298;52.076;5.264;2023-04-30T00:18:04;102302.0;;;7.9;79.22
67430;BME280;54298;52.076;5.264;2023-04-30T00:19:40;102302.0;;;7.87;78.95
67430;BME280;54298;52.076;5.264;2023-04-30T00:21:17;102297.0;;;7.94;78.61
67430;BME280;54298;52.076;5.264;2023-04-30T00:24:31;102298.0;;;7.99;78.16
67430;BME280;54298;52.076;5.264;2023-04-30T00:26:07;102296.0;;;7.72;78.44
67430;BME280;54298;52.076;5.264;2023-04-30T00:27:43;102300.0;;;7.82;78.28
67430;BME280;54298;52.076;5.264;2023-04-30T00:30:55;102305.0;;;7.89;77.7
67430;BME280;54298;52.076;5.264;2023-04-30T00:32:31;102307.0;;;7.92;77.31
67430;BME280;54298;52.076;5.264;2023-04-30T00:34:07;102307.0;;;7.85;77.7
67430;BME280;54298;52.076;5.264;2023-04-30T00:37:19;102310.0;;;7.72;78.14
67430;BME280;54298;52.076;5.264;2023-04-30T00:38:55;102311.0;;;7.52;79.0
67430;BME280;54298;52.076;5.264;2023-04-30T00:40:33;102308.0;;;7.48;79.16
67430;BME280;54298;52.076;5.264;2023-04-30T00:42:09;102312.0;;;7.36;79.58
67430;BME280;54298;52.076;5.264;2023-04-30T00:45:21;102314.0;;;7.37;79.37
67430;BME280;54298;52.076;5.264;2023-04-30T00:46:57;102324.0;;;7.46;78.92
67430;BME280;54298;52.076;5.264;2023-04-30T00:48:33;102320.0;;;7.24;79.94
67430;BME280;54298;52.076;5.264;2023-04-30T00:51:46;102327.0;;;7.2;80.36
67430;BME280;54298;52.076;5.264;2023-04-30T00:53:23;102331.0;;;6.96;81.25
67430;BME280;54298;52.076;5.264;2023-04-30T00:55:00;102325.0;;;6.95;81.55
67430;BME280;54298;52.076;5.264;2023-04-30T00:58:12;102326.0;;;7.06;81.11
67430;BME280;54298;52.076;5.264;2023-04-30T00:59:48;102328.0;;;7.13;80.8
67430;BME280;54298;52.076;5.264;2023-04-30T01:01:26;102324.0;;;7.22;80.41
67430;BME280;54298;52.076;5.264;2023-04-30T01:04:38;102332.0;;;7.25;80.11
67430;BME280;54298;52.076;5.264;2023-04-30T01:06:14;102330.0;;;7.19;80.14
67430;BME280;54298;52.076;5.264;2023-04-30T01:07:51;102330.0;;;7.05;80.69
67430;BME280;54298;52.076;5.264;2023-04-30T01:09:29;102335.0;;;6.9;81.28
67430;BME280;54298;52.076;5.264;2023-04-30T01:13:02;102331.0;;;6.81;81.53
67430;BME280;54298;52.076;5.264;2023-04-30T01:14:52;102332.0;;;6.72;81.86
67430;BME280;54298;52.076;5.264;2023-04-30T01:16:39;102334.0;;;6.72;81.91
67430;BME280;54298;52.076;5.264;2023-04-30T01:18:25;102330.0;;;6.75;81.64
67430;BME280;54298;52.076;5.264;2023-04-30T01:20:04;102332.0;;;6.62;82.23
67430;BME280;54298;52.076;5.264;2023-04-30T01:23:26;102332.0;;;6.6;82.44
67430;BME280;54298;52.076;5.264;2023-04-30T01:25:43;102328.0;;;6.61;82.4
67430;BME280;54298;52.076;5.264;2023-04-30T01:27:31;102330.0;;;6.58;82.48
67430;BME280;54298;52.076;5.264;2023-04-30T01:29:15;102325.0;;;6.6;82.59
67430;BME280;54298;52.076;5.264;2023-04-30T01:30:54;102330.0;;;6.66;82.19
67430;BME280;54298;52.076;5.264;2023-04-30T01:32:30;102327.0;;;6.58;82.46
67430;BME280;54298;52.076;5.264;2023-04-30T01:35:55;102327.0;;;6.57;82.34
67430;BME280;54298;52.076;5.264;2023-04-30T01:37:47;102331.0;;;6.71;81.8
67430;BME280;54298;52.076;5.264;2023-04-30T01:40:21;102327.0;;;6.75;81.34
67430;BME280;54298;52.076;5.264;2023-04-30T01:42:05;102330.0;;;6.66;81.33
67430;BME280;54298;52.076;5.264;2023-04-30T01:44:02;102325.0;;;6.63;81.58
67430;BME280;54298;52.076;5.264;2023-04-30T01:45:51;102330.0;;;6.54;81.83
67430;BME280;54298;52.076;5.264;2023-04-30T01:47:38;102330.0;;;6.46;82.12
67430;BME280;54298;52.076;5.264;2023-04-30T01:49:31;102327.0;;;6.4;82.22
67430;BME280;54298;52.076;5.264;2023-04-30T01:51:16;102328.0;;;6.52;82.14
67430;BME280;54298;52.076;5.264;2023-04-30T01:54:48;102335.0;;;6.46;82.48
67430;BME280;54298;52.076;5.264;2023-04-30T01:56:27;102333.0;;;6.48;82.34
67430;BME280;54298;52.076;5.264;2023-04-30T01:58:10;102338.0;;;6.5;82.32
67430;BME280;54298;52.076;5.264;2023-04-30T01:59:48;102337.0;;;6.58;81.78
67430;BME280;54298;52.076;5.264;2023-04-30T02:03:03;102336.0;;;6.4;82.33
67430;BME280;54298;52.076;5.264;2023-04-30T02:04:40;102339.0;;;6.31;82.83
67430;BME280;54298;52.076;5.264;2023-04-30T02:06:16;102339.0;;;6.35;82.85
67430;BME280;54298;52.076;5.264;2023-04-30T02:09:28;102344.0;;;6.37;82.8
67430;BME280;54298;52.076;5.264;2023-04-30T02:11:04;102348.0;;;6.35;83.0
67430;BME280;54298;52.076;5.264;2023-04-30T02:12:40;102339.0;;;6.46;82.69
67430;BME280;54298;52.076;5.264;2023-04-30T02:14:16;102340.0;;;6.46;82.66
67430;BME280;54298;52.076;5.264;2023-04-30T02:17:30;102337.0;;;6.4;82.48
67430;BME280;54298;52.076;5.264;2023-04-30T02:19:07;102344.0;;;6.36;82.46
67430;BME280;54298;52.076;5.264;2023-04-30T02:20:44;102343.0;;;6.35;82.6
67430;BME280;54298;52.076;5.264;2023-04-30T02:23:56;102340.0;;;6.39;82.3
67430;BME280;54298;52.076;5.264;2023-04-30T02:25:32;102337.0;;;6.38;82.35
67430;BME280;54298;52.076;5.264;2023-04-30T02:27:08;102341.0;;;6.39;82.24
67430;BME280;54298;52.076;5.264;2023-04-30T02:30:21;102333.0;;;6.4;82.16
67430;BME280;54298;52.076;5.264;2023-04-30T02:31:57;102337.0;;;6.43;81.98
67430;BME280;54298;52.076;5.264;2023-04-30T02:33:34;102337.0;;;6.36;82.03
67430;BME280;54298;52.076;5.264;2023-04-30T02:35:10;102334.0;;;6.38;82.05
67430;BME280;54298;52.076;5.264;2023-04-30T02:38:23;102334.0;;;6.24;82.62
67430;BME280;54298;52.076;5.264;2023-04-30T02:39:59;102333.0;;;6.11;82.95
67430;BME280;54298;52.076;5.264;2023-04-30T02:41:35;102330.0;;;6.2;82.86
67430;BME280;54298;52.076;5.264;2023-04-30T02:44:47;102335.0;;;6.33;82.01
67430;BME280;54298;52.076;5.264;2023-04-30T02:46:23;102335.0;;;6.25;82.08
67430;BME280;54298;52.076;5.264;2023-04-30T02:47:59;102328.0;;;6.36;81.33
67430;BME280;54298;52.076;5.264;2023-04-30T02:51:12;102324.0;;;6.34;81.24
67430;BME280;54298;52.076;5.264;2023-04-30T02:52:48;102323.0;;;6.23;81.36
67430;BME280;54298;52.076;5.264;2023-04-30T02:54:24;102319.0;;;6.11;81.69
67430;BME280;54298;52.076;5.264;2023-04-30T02:57:36;102319.0;;;6.03;82.13
67430;BME280;54298;52.076;5.264;2023-04-30T02:59:13;102322.0;;;5.99;82.33
67430;BME280;54298;52.076;5.264;2023-04-30T03:00:49;102322.0;;;5.86;82.77
67430;BME280;54298;52.076;5.264;2023-04-30T03:02:25;102321.0;;;5.95;82.62
67430;BME280;54298;52.076;5.264;2023-04-30T03:05:37;102327.0;;;5.88;82.43
67430;BME280;54298;52.076;5.264;2023-04-30T03:07:14;102324.0;;;5.88;81.97
67430;BME280;54298;52.076;5.264;2023-04-30T03:08:51;102319.0;;;5.89;81.95
67430;BME280;54298;52.076;5.264;2023-04-30T03:12:03;102323.0;;;5.9;81.83
67430;BME280;54298;52.076;5.264;2023-04-30T03:13:41;102328.0;;;5.89;81.63
67430;BME280;54298;52.076;5.264;2023-04-30T03:15:18;102328.0;;;5.8;82.18
67430;BME280;54298;52.076;5.264;2023-04-30T03:18:31;102323.0;;;5.62;82.94
67430;BME280;54298;52.076;5.264;2023-04-30T03:20:09;102325.0;;;5.66;83.0
67430;BME280;54298;52.076;5.264;2023-04-30T03:21:46;102323.0;;;5.62;83.25
67430;BME280;54298;52.076;5.264;2023-04-30T03:23:22;102328.0;;;5.65;83.14
67430;BME280;54298;52.076;5.264;2023-04-30T03:26:35;102325.0;;;5.61;83.45
67430;BME280;54298;52.076;5.264;2023-04-30T03:28:12;102333.0;;;5.62;83.45
67430;BME280;54298;52.076;5.264;2023-04-30T03:29:49;102328.0;;;5.64;83.38
67430;BME280;54298;52.076;5.264;2023-04-30T03:33:02;102327.0;;;5.63;83.25
67430;BME280;54298;52.076;5.264;2023-04-30T03:34:39;102319.0;;;5.73;82.55
67430;BME280;54298;52.076;5.264;2023-04-30T03:36:16;102318.0;;;5.93;81.55
67430;BME280;54298;52.076;5.264;2023-04-30T03:37:52;102316.0;;;5.88;81.08
67430;BME280;54298;52.076;5.264;2023-04-30T03:41:05;102322.0;;;5.68;81.86
67430;BME280;54298;52.076;5.264;2023-04-30T03:42:42;102319.0;;;5.61;82.33
67430;BME280;54298;52.076;5.264;2023-04-30T03:44:18;102322.0;;;5.58;82.67
67430;BME280;54298;52.076;5.264;2023-04-30T03:47:31;102320.0;;;5.5;82.88
67430;BME280;54298;52.076;5.264;2023-04-30T03:49:07;102321.0;;;5.51;82.94
67430;BME280;54298;52.076;5.264;2023-04-30T03:50:44;102315.0;;;5.45;83.13
67430;BME280;54298;52.076;5.264;2023-04-30T03:53:56;102316.0;;;5.48;82.88
67430;BME280;54298;52.076;5.264;2023-04-30T03:55:33;102316.0;;;5.42;82.96
67430;BME280;54298;52.076;5.264;2023-04-30T03:57:09;102318.0;;;5.52;82.81
67430;BME280;54298;52.076;5.264;2023-04-30T03:58:45;102319.0;;;5.61;82.25
67430;BME280;54298;52.076;5.264;2023-04-30T04:01:59;102317.0;;;5.59;82.19
67430;BME280;54298;52.076;5.264;2023-04-30T04:03:35;102314.0;;;5.64;82.1
67430;BME280;54298;52.076;5.264;2023-04-30T04:05:11;102309.0;;;5.64;81.81
67430;BME280;54298;52.076;5.264;2023-04-30T04:08:23;102305.0;;;5.71;81.44
67430;BME280;54298;52.076;5.264;2023-04-30T04:09:59;102305.0;;;5.61;81.14
67430;BME280;54298;52.076;5.264;2023-04-30T04:11:35;102309.0;;;5.51;81.28
67430;BME280;54298;52.076;5.264;2023-04-30T04:14:48;102309.0;;;5.7;80.48
67430;BME280;54298;52.076;5.264;2023-04-30T04:16:24;102305.0;;;5.8;79.92
67430;BME280;54298;52.076;5.264;2023-04-30T04:18:00;102313.0;;;5.63;80.58
67430;BME280;54298;52.076;5.264;2023-04-30T04:21:12;102314.0;;;5.62;80.75
67430;BME280;54298;52.076;5.264;2023-04-30T04:22:48;102316.0;;;5.59;80.44
67430;BME280;54298;52.076;5.264;2023-04-30T04:24:25;102315.0;;;5.48;80.87
67430;BME280;54298;52.076;5.264;2023-04-30T04:26:01;102317.0;;;5.5;80.66
67430;BME280;54298;52.076;5.264;2023-04-30T04:29:14;102324.0;;;5.51;80.86
67430;BME280;54298;52.076;5.264;2023-04-30T04:30:50;102325.0;;;5.47;80.77
67430;BME280;54298;52.076;5.264;2023-04-30T04:32:26;102318.0;;;5.4;81.13
67430;BME280;54298;52.076;5.264;2023-04-30T04:35:40;102323.0;;;5.31;81.96
67430;BME280;54298;52.076;5.264;2023-04-30T04:37:17;102324.0;;;5.16;82.78
67430;BME280;54298;52.076;5.264;2023-04-30T04:38:53;102325.0;;;5.22;83.05
67430;BME280;54298;52.076;5.264;2023-04-30T04:43:43;102321.0;;;5.3;82.5
67430;BME280;54298;52.076;5.264;2023-04-30T04:45:19;102325.0;;;5.27;83.16
67430;BME280;54298;52.076;5.264;2023-04-30T04:46:56;102327.0;;;5.32;83.51
67430;BME280;54298;52.076;5.264;2023-04-30T04:50:09;102324.0;;;5.38;83.73
67430;BME280;54298;52.076;5.264;2023-04-30T04:51:45;102326.0;;;5.47;83.56
67430;BME280;54298;52.076;5.264;2023-04-30T04:53:21;102323.0;;;5.59;83.01
67430;BME280;54298;52.076;5.264;2023-04-30T04:56:33;102323.0;;;5.56;83.28
67430;BME280;54298;52.076;5.264;2023-04-30T04:58:10;102315.0;;;5.79;82.46
67430;BME280;54298;52.076;5.264;2023-04-30T04:59:46;102313.0;;;5.84;82.16
67430;BME280;54298;52.076;5.264;2023-04-30T05:02:58;102317.0;;;5.93;81.62
67430;BME280;54298;52.076;5.264;2023-04-30T05:04:34;102317.0;;;5.87;81.27
67430;BME280;54298;52.076;5.264;2023-04-30T05:06:10;102320.0;;;6.07;80.55
67430;BME280;54298;52.076;5.264;2023-04-30T05:09:23;102322.0;;;5.92;80.92
67430;BME280;54298;52.076;5.264;2023-04-30T05:11:00;102320.0;;;5.84;81.52
67430;BME280;54298;52.076;5.264;2023-04-30T05:12:36;102315.0;;;5.79;82.17
67430;BME280;54298;52.076;5.264;2023-04-30T05:14:12;102317.0;;;5.78;82.8
67430;BME280;54298;52.076;5.264;2023-04-30T05:17:27;102319.0;;;5.77;83.39
67430;BME280;54298;52.076;5.264;2023-04-30T05:19:03;102315.0;;;5.8;83.77
67430;BME280;54298;52.076;5.264;2023-04-30T05:20:39;102315.0;;;5.82;84.09
67430;BME280;54298;52.076;5.264;2023-04-30T05:23:51;102314.0;;;5.96;83.89
67430;BME280;54298;52.076;5.264;2023-04-30T05:25:28;102313.0;;;6.02;83.77
67430;BME280;54298;52.076;5.264;2023-04-30T05:27:04;102317.0;;;6.18;83.5
67430;BME280;54298;52.076;5.264;2023-04-30T05:30:16;102319.0;;;6.24;83.72
67430;BME280;54298;52.076;5.264;2023-04-30T05:31:52;102320.0;;;6.38;83.92
67430;BME280;54298;52.076;5.264;2023-04-30T05:33:28;102321.0;;;6.55;84.16
67430;BME280;54298;52.076;5.264;2023-04-30T05:35:05;102320.0;;;6.65;84.27
67430;BME280;54298;52.076;5.264;2023-04-30T05:38:18;102324.0;;;6.72;84.52
67430;BME280;54298;52.076;5.264;2023-04-30T05:39:54;102325.0;;;6.83;84.49
67430;BME280;54298;52.076;5.264;2023-04-30T05:41:31;102325.0;;;6.99;84.35
67430;BME280;54298;52.076;5.264;2023-04-30T05:44:43;102331.0;;;7.13;84.17
67430;BME280;54298;52.076;5.264;2023-04-30T05:46:19;102331.0;;;7.29;83.91
67430;BME280;54298;52.076;5.264;2023-04-30T05:47:55;102334.0;;;7.35;83.93
67430;BME280;54298;52.076;5.264;2023-04-30T05:51:08;102334.0;;;7.45;83.85
67430;BME280;54298;52.076;5.264;2023-04-30T05:52:44;102335.0;;;7.41;84.14
67430;BME280;54298;52.076;5.264;2023-04-30T05:54:20;102340.0;;;7.52;84.45
67430;BME280;54298;52.076;5.264;2023-04-30T05:55:56;102341.0;;;7.66;84.48
67430;BME280;54298;52.076;5.264;2023-04-30T05:59:09;102352.0;;;7.76;84.31
67430;BME280;54298;52.076;5.264;2023-04-30T06:00:48;102350.0;;;7.91;84.33
67430;BME280;54298;52.076;5.264;2023-04-30T06:02:24;102347.0;;;8.08;84.13
67430;BME280;54298;52.076;5.264;2023-04-30T06:05:36;102351.0;;;8.16;84.03
67430;BME280;54298;52.076;5.264;2023-04-30T06:07:13;102346.0;;;8.23;83.99
67430;BME280;54298;52.076;5.264;2023-04-30T06:08:49;102343.0;;;8.43;83.84
67430;BME280;54298;52.076;5.264;2023-04-30T06:12:01;102343.0;;;8.56;83.25
67430;BME280;54298;52.076;5.264;2023-04-30T06:13:38;102340.0;;;8.61;83.13
67430;BME280;54298;52.076;5.264;2023-04-30T06:15:15;102346.0;;;8.76;82.46
67430;BME280;54298;52.076;5.264;2023-04-30T06:16:52;102345.0;;;8.83;81.93
67430;BME280;54298;52.076;5.264;2023-04-30T06:20:05;102340.0;;;9.01;81.55
67430;BME280;54298;52.076;5.264;2023-04-30T06:21:42;102342.0;;;9.16;81.16
67430;BME280;54298;52.076;5.264;2023-04-30T06:23:19;102340.0;;;9.22;80.61
67430;BME280;54298;52.076;5.264;2023-04-30T06:26:31;102341.0;;;9.31;80.45
67430;BME280;54298;52.076;5.264;2023-04-30T06:28:07;102344.0;;;9.34;80.42
67430;BME280;54298;52.076;5.264;2023-04-30T06:29:43;102340.0;;;9.56;79.98
67430;BME280;54298;52.076;5.264;2023-04-30T06:32:57;102341.0;;;9.63;79.48
67430;BME280;54298;52.076;5.264;2023-04-30T06:34:33;102338.0;;;9.66;79.03
67430;BME280;54298;52.076;5.264;2023-04-30T06:36:10;102339.0;;;9.73;78.49
67430;BME280;54298;52.076;5.264;2023-04-30T06:37:46;102342.0;;;9.81;77.75
67430;BME280;54298;52.076;5.264;2023-04-30T06:40:58;102346.0;;;9.98;77.22
67430;BME280;54298;52.076;5.264;2023-04-30T06:42:35;102347.0;;;10.06;76.36
67430;BME280;54298;52.076;5.264;2023-04-30T06:44:11;102347.0;;;10.17;75.67
67430;BME280;54298;52.076;5.264;2023-04-30T06:47:23;102349.0;;;10.23;75.94
67430;BME280;54298;52.076;5.264;2023-04-30T06:48:59;102355.0;;;10.34;75.52
67430;BME280;54298;52.076;5.264;2023-04-30T06:50:36;102355.0;;;10.44;74.66
67430;BME280;54298;52.076;5.264;2023-04-30T06:53:49;102349.0;;;10.44;74.09
67430;BME280;54298;52.076;5.264;2023-04-30T06:55:25;102356.0;;;10.6;73.47
67430;BME280;54298;52.076;5.264;2023-04-30T06:57:02;102355.0;;;10.64;73.08
67430;BME280;54298;52.076;5.264;2023-04-30T07:00:14;102358.0;;;10.74;73.19
67430;BME280;54298;52.076;5.264;2023-04-30T07:01:50;102353.0;;;10.68;72.77
67430;BME280;54298;52.076;5.264;2023-04-30T07:03:27;102359.0;;;10.88;72.05
67430;BME280;54298;52.076;5.264;2023-04-30T07:05:03;102356.0;;;10.8;71.99
67430;BME280;54298;52.076;5.264;2023-04-30T07:08:17;102353.0;;;11.1;71.47
67430;BME280;54298;52.076;5.264;2023-04-30T07:09:53;102356.0;;;11.2;70.62
67430;BME280;54298;52.076;5.264;2023-04-30T07:11:30;102358.0;;;11.23;70.05
67430;BME280;54298;52.076;5.264;2023-04-30T07:14:42;102360.0;;;11.31;69.52
67430;BME280;54298;52.076;5.264;2023-04-30T07:16:18;102361.0;;;11.3;69.69
67430;BME280;54298;52.076;5.264;2023-04-30T07:17:54;102363.0;;;11.29;69.42
67430;BME280;54298;52.076;5.264;2023-04-30T07:21:07;102363.0;;;11.27;70.11
67430;BME280;54298;52.076;5.264;2023-04-30T07:22:43;102362.0;;;11.36;69.44
67430;BME280;54298;52.076;5.264;2023-04-30T07:24:20;102366.0;;;11.38;69.44
67430;BME280;54298;52.076;5.264;2023-04-30T07:25:56;102362.0;;;11.34;68.8
67430;BME280;54298;52.076;5.264;2023-04-30T07:29:09;102366.0;;;11.63;68.56
67430;BME280;54298;52.076;5.264;2023-04-30T07:30:45;102364.0;;;11.63;68.33
67430;BME280;54298;52.076;5.264;2023-04-30T07:32:21;102364.0;;;11.75;68.41
67430;BME280;54298;52.076;5.264;2023-04-30T07:35:34;102365.0;;;11.73;67.99
67430;BME280;54298;52.076;5.264;2023-04-30T07:37:10;102364.0;;;11.79;67.55
67430;BME280;54298;52.076;5.264;2023-04-30T07:38:47;102364.0;;;11.73;67.66
67430;BME280;54298;52.076;5.264;2023-04-30T07:41:59;102363.0;;;11.79;67.31
67430;BME280;54298;52.076;5.264;2023-04-30T07:43:35;102366.0;;;11.87;67.41
67430;BME280;54298;52.076;5.264;2023-04-30T07:45:11;102362.0;;;11.89;67.06
67430;BME280;54298;52.076;5.264;2023-04-30T07:46:47;102356.0;;;11.89;66.94
67430;BME280;54298;52.076;5.264;2023-04-30T07:50:02;102355.0;;;11.92;66.86
67430;BME280;54298;52.076;5.264;2023-04-30T07:51:39;102351.0;;;11.89;67.06
67430;BME280;54298;52.076;5.264;2023-04-30T07:53:16;102351.0;;;12.08;66.91
67430;BME280;54298;52.076;5.264;2023-04-30T07:56:29;102355.0;;;11.94;67.41
67430;BME280;54298;52.076;5.264;2023-04-30T07:58:05;102349.0;;;12.17;66.98
67430;BME280;54298;52.076;5.264;2023-04-30T07:59:41;102345.0;;;12.36;66.72
67430;BME280;54298;52.076;5.264;2023-04-30T08:02:54;102346.0;;;12.47;65.95
67430;BME280;54298;52.076;5.264;2023-04-30T08:04:30;102351.0;;;12.39;65.99
67430;BME280;54298;52.076;5.264;2023-04-30T08:06:06;102349.0;;;12.42;65.99
67430;BME280;54298;52.076;5.264;2023-04-30T08:07:42;102355.0;;;12.65;65.11
67430;BME280;54298;52.076;5.264;2023-04-30T08:10:54;102347.0;;;12.58;64.8
67430;BME280;54298;52.076;5.264;2023-04-30T08:12:31;102355.0;;;12.81;64.24
67430;BME280;54298;52.076;5.264;2023-04-30T08:14:10;102355.0;;;12.67;64.77
67430;BME280;54298;52.076;5.264;2023-04-30T08:18:58;102353.0;;;12.79;64.14
67430;BME280;54298;52.076;5.264;2023-04-30T08:20:34;102359.0;;;12.95;63.83
67430;BME280;54298;52.076;5.264;2023-04-30T08:23:46;102355.0;;;12.97;63.58
67430;BME280;54298;52.076;5.264;2023-04-30T08:25:23;102355.0;;;13.05;63.63
67430;BME280;54298;52.076;5.264;2023-04-30T08:26:59;102353.0;;;12.99;63.31
67430;BME280;54298;52.076;5.264;2023-04-30T08:30:12;102350.0;;;13.05;63.58
67430;BME280;54298;52.076;5.264;2023-04-30T08:31:48;102350.0;;;13.07;62.91
67430;BME280;54298;52.076;5.264;2023-04-30T08:33:24;102353.0;;;13.23;62.4
67430;BME280;54298;52.076;5.264;2023-04-30T08:35:00;102352.0;;;13.24;61.96
67430;BME280;54298;52.076;5.264;2023-04-30T08:38:13;102349.0;;;13.31;62.35
67430;BME280;54298;52.076;5.264;2023-04-30T08:39:49;102347.0;;;13.29;62.09
67430;BME280;54298;52.076;5.264;2023-04-30T08:41:25;102345.0;;;13.51;62.08
67430;BME280;54298;52.076;5.264;2023-04-30T08:44:43;102347.0;;;13.55;61.87
67430;BME280;54298;52.076;5.264;2023-04-30T08:46:20;102345.0;;;13.42;61.68
67430;BME280;54298;52.076;5.264;2023-04-30T08:47:58;102348.0;;;13.58;60.98
67430;BME280;54298;52.076;5.264;2023-04-30T08:49:35;102345.0;;;13.55;60.95
67430;BME280;54298;52.076;5.264;2023-04-30T08:52:49;102347.0;;;13.74;59.98
67430;BME280;54298;52.076;5.264;2023-04-30T08:54:27;102346.0;;;13.93;60.05
67430;BME280;54298;52.076;5.264;2023-04-30T08:56:05;102341.0;;;13.98;59.53
67430;BME280;54298;52.076;5.264;2023-04-30T08:59:22;102345.0;;;14.06;59.47
67430;BME280;54298;52.076;5.264;2023-04-30T09:00:58;102343.0;;;13.97;59.39
67430;BME280;54298;52.076;5.264;2023-04-30T09:02:38;102341.0;;;13.96;59.44
67430;BME280;54298;52.076;5.264;2023-04-30T09:04:15;102334.0;;;14.06;58.91
67430;BME280;54298;52.076;5.264;2023-04-30T09:07:30;102340.0;;;14.0;58.48
67430;BME280;54298;52.076;5.264;2023-04-30T09:09:12;102335.0;;;14.14;58.18
67430;BME280;54298;52.076;5.264;2023-04-30T09:10:48;102333.0;;;14.2;58.52
67430;BME280;54298;52.076;5.264;2023-04-30T09:14:02;102335.0;;;14.19;58.39
67430;BME280;54298;52.076;5.264;2023-04-30T09:15:39;102330.0;;;14.4;58.12
67430;BME280;54298;52.076;5.264;2023-04-30T09:17:20;102333.0;;;14.32;57.99
67430;BME280;54298;52.076;5.264;2023-04-30T09:18:57;102331.0;;;14.36;58.35
67430;BME280;54298;52.076;5.264;2023-04-30T09:22:18;102331.0;;;14.39;57.63
67430;BME280;54298;52.076;5.264;2023-04-30T09:23:56;102334.0;;;14.48;57.01
67430;BME280;54298;52.076;5.264;2023-04-30T09:25:37;102332.0;;;14.43;57.36
67430;BME280;54298;52.076;5.264;2023-04-30T09:27:15;102330.0;;;14.45;56.88
67430;BME280;54298;52.076;5.264;2023-04-30T09:30:31;102337.0;;;14.66;55.75
67430;BME280;54298;52.076;5.264;2023-04-30T09:32:08;102326.0;;;14.72;55.33
67430;BME280;54298;52.076;5.264;2023-04-30T09:33:44;102326.0;;;14.79;55.36
67430;BME280;54298;52.076;5.264;2023-04-30T09:37:04;102324.0;;;14.88;55.17
67430;BME280;54298;52.076;5.264;2023-04-30T09:38:41;102326.0;;;14.67;55.84
67430;BME280;54298;52.076;5.264;2023-04-30T09:40:31;102321.0;;;14.98;55.15
67430;BME280;54298;52.076;5.264;2023-04-30T09:42:08;102320.0;;;15.05;54.65
67430;BME280;54298;52.076;5.264;2023-04-30T09:45:22;102323.0;;;14.99;55.16
67430;BME280;54298;52.076;5.264;2023-04-30T09:46:58;102327.0;;;15.13;54.88
67430;BME280;54298;52.076;5.264;2023-04-30T09:48:34;102320.0;;;15.12;53.87
67430;BME280;54298;52.076;5.264;2023-04-30T09:50:17;102317.0;;;15.24;53.95
67430;BME280;54298;52.076;5.264;2023-04-30T09:53:32;102319.0;;;15.26;54.26
67430;BME280;54298;52.076;5.264;2023-04-30T09:55:12;102312.0;;;15.45;53.97
67430;BME280;54298;52.076;5.264;2023-04-30T09:56:49;102314.0;;;15.56;54.46
67430;BME280;54298;52.076;5.264;2023-04-30T10:00:11;102313.0;;;15.44;53.73
67430;BME280;54298;52.076;5.264;2023-04-30T10:01:49;102312.0;;;15.46;53.63
67430;BME280;54298;52.076;5.264;2023-04-30T10:03:29;102312.0;;;15.65;53.12
67430;BME280;54298;52.076;5.264;2023-04-30T10:05:06;102307.0;;;15.69;53.37
67430;BME280;54298;52.076;5.264;2023-04-30T10:08:24;102313.0;;;15.51;53.92
67430;BME280;54298;52.076;5.264;2023-04-30T10:10:06;102307.0;;;15.72;53.8
67430;BME280;54298;52.076;5.264;2023-04-30T10:11:44;102303.0;;;15.76;53.44
67430;BME280;54298;52.076;5.264;2023-04-30T10:13:23;102298.0;;;15.78;52.92
67430;BME280;54298;52.076;5.264;2023-04-30T10:16:52;102295.0;;;15.94;52.58
67430;BME280;54298;52.076;5.264;2023-04-30T10:18:33;102295.0;;;16.02;52.68
67430;BME280;54298;52.076;5.264;2023-04-30T10:20:12;102290.0;;;15.96;52.42
67430;BME280;54298;52.076;5.264;2023-04-30T10:21:50;102295.0;;;15.81;51.94
67430;BME280;54298;52.076;5.264;2023-04-30T10:25:05;102292.0;;;15.8;51.89
67430;BME280;54298;52.076;5.264;2023-04-30T10:26:42;102288.0;;;15.97;51.62
67430;BME280;54298;52.076;5.264;2023-04-30T10:28:19;102288.0;;;16.18;51.61
67430;BME280;54298;52.076;5.264;2023-04-30T10:31:34;102282.0;;;16.27;52.0
67430;BME280;54298;52.076;5.264;2023-04-30T10:33:18;102281.0;;;16.31;52.12
67430;BME280;54298;52.076;5.264;2023-04-30T10:35:07;102282.0;;;16.4;51.67
67430;BME280;54298;52.076;5.264;2023-04-30T10:36:47;102283.0;;;16.43;50.94
67430;BME280;54298;52.076;5.264;2023-04-30T10:38:27;102280.0;;;16.45;50.7
67430;BME280;54298;52.076;5.264;2023-04-30T10:41:44;102280.0;;;16.5;51.05
67430;BME280;54298;52.076;5.264;2023-04-30T10:43:22;102270.0;;;16.52;49.45
67430;BME280;54298;52.076;5.264;2023-04-30T10:45:00;102269.0;;;16.63;49.52
67430;BME280;54298;52.076;5.264;2023-04-30T10:48:15;102269.0;;;16.45;49.59
67430;BME280;54298;52.076;5.264;2023-04-30T10:50:01;102266.0;;;16.43;49.93
67430;BME280;54298;52.076;5.264;2023-04-30T10:51:46;102260.0;;;16.63;50.15
67430;BME280;54298;52.076;5.264;2023-04-30T10:53:29;102264.0;;;16.48;50.42
67430;BME280;54298;52.076;5.264;2023-04-30T10:55:08;102264.0;;;16.45;51.1
67430;BME280;54298;52.076;5.264;2023-04-30T10:58:23;102255.0;;;16.5;50.13
67430;BME280;54298;52.076;5.264;2023-04-30T11:00:17;102253.0;;;16.53;50.81
67430;BME280;54298;52.076;5.264;2023-04-30T11:01:57;102252.0;;;16.71;51.76
67430;BME280;54298;52.076;5.264;2023-04-30T11:03:34;102251.0;;;16.95;50.24
67430;BME280;54298;52.076;5.264;2023-04-30T11:06:55;102246.0;;;16.93;49.98
67430;BME280;54298;52.076;5.264;2023-04-30T11:09:02;102241.0;;;17.2;49.57
67430;BME280;54298;52.076;5.264;2023-04-30T11:10:56;102240.0;;;17.34;48.92
67430;BME280;54298;52.076;5.264;2023-04-30T11:12:33;102236.0;;;16.91;48.26
67430;BME280;54298;52.076;5.264;2023-04-30T11:14:10;102234.0;;;17.11;48.56